createdAt,value
2019-02-17T00:00:03.053Z,999.68
2019-02-17T00:01:03.175Z,999.70
2019-02-17T00:02:03.295Z,999.65
2019-02-17T00:03:03.423Z,999.58
2019-02-17T00:04:03.550Z,999.60
2019-02-17T00:05:03.675Z,999.59
2019-02-17T00:06:03.796Z,999.51
2019-02-17T00:07:03.923Z,999.53
2019-02-17T00:08:04.044Z,999.55
2019-02-17T00:09:04.185Z,999.56
2019-02-17T00:10:04.324Z,999.52
2019-02-17T00:11:04.451Z,999.54
2019-02-17T00:12:04.560Z,999.54
2019-02-17T00:13:04.685Z,999.54
2019-02-17T00:14:04.808Z,999.61
2019-02-17T00:15:04.947Z,999.56
2019-02-17T00:16:05.067Z,999.57
2019-02-17T00:17:05.189Z,999.62
2019-02-17T00:18:05.315Z,999.61
2019-02-17T00:19:05.442Z,999.63
2019-02-17T00:20:07.981Z,999.59
2019-02-17T00:21:05.702Z,999.62
2019-02-17T00:22:05.809Z,999.63
2019-02-17T00:23:05.927Z,999.62
2019-02-17T00:24:06.053Z,999.62
2019-02-17T00:25:06.176Z,999.61
2019-02-17T00:26:06.304Z,999.59
2019-02-17T00:27:06.421Z,999.58
2019-02-17T00:28:06.545Z,999.58
2019-02-17T00:29:06.675Z,999.57
2019-02-17T00:30:06.799Z,999.59
2019-02-17T00:31:06.927Z,999.57
2019-02-17T00:32:07.045Z,999.62
2019-02-17T00:33:07.172Z,999.59
2019-02-17T00:34:07.325Z,999.57
2019-02-17T00:35:07.446Z,999.58
2019-02-17T00:36:07.569Z,999.57
2019-02-17T00:37:07.688Z,999.58
2019-02-17T00:38:07.817Z,999.58
2019-02-17T00:39:07.956Z,999.61
2019-02-17T00:40:08.067Z,999.61
2019-02-17T00:41:08.217Z,999.63
2019-02-17T00:42:08.325Z,999.60
2019-02-17T00:43:08.452Z,999.60
2019-02-17T00:44:08.582Z,999.61
2019-02-17T00:45:08.706Z,999.59
2019-02-17T00:46:08.834Z,999.56
2019-02-17T00:47:08.962Z,999.59
2019-02-17T00:48:09.093Z,999.54
2019-02-17T00:49:09.221Z,999.59
2019-02-17T00:50:09.354Z,999.57
2019-02-17T00:51:09.472Z,999.59
2019-02-17T00:52:09.597Z,999.63
2019-02-17T00:53:09.723Z,999.57
2019-02-17T00:54:09.857Z,999.62
2019-02-17T00:55:09.979Z,999.58
2019-02-17T00:56:10.105Z,999.57
2019-02-17T00:57:10.242Z,999.61
2019-02-17T00:58:10.362Z,999.60
2019-02-17T00:59:10.689Z,999.58
2019-02-17T01:00:10.603Z,999.56
2019-02-17T01:01:10.732Z,999.58
2019-02-17T01:02:10.858Z,999.57
2019-02-17T01:03:10.987Z,999.56
2019-02-17T01:04:11.116Z,999.56
2019-02-17T01:05:11.236Z,999.57
2019-02-17T01:06:11.363Z,999.57
2019-02-17T01:07:11.482Z,999.51
2019-02-17T01:08:11.611Z,999.51
2019-02-17T01:09:11.738Z,999.52
2019-02-17T01:10:11.858Z,999.54
2019-02-17T01:11:11.988Z,999.56
2019-02-17T01:12:12.111Z,999.53
2019-02-17T01:13:12.233Z,999.55
2019-02-17T01:14:12.377Z,999.54
2019-02-17T01:15:12.493Z,999.51
2019-02-17T01:16:12.621Z,999.56
2019-02-17T01:17:12.741Z,999.56
2019-02-17T01:18:12.863Z,999.61
2019-02-17T01:19:12.987Z,999.62
2019-02-17T01:20:13.103Z,999.60
2019-02-17T01:21:13.237Z,999.64
2019-02-17T01:22:13.370Z,999.58
2019-02-17T01:23:13.485Z,999.58
2019-02-17T01:24:13.614Z,999.59
2019-02-17T01:25:13.749Z,999.56
2019-02-17T01:26:13.870Z,999.54
2019-02-17T01:27:14.013Z,999.59
2019-02-17T01:28:14.108Z,999.64
2019-02-17T01:29:20.374Z,999.65
2019-02-17T01:30:14.349Z,999.61
2019-02-17T01:31:14.479Z,999.60
2019-02-17T01:32:14.596Z,999.62
2019-02-17T01:33:14.723Z,999.61
2019-02-17T01:34:14.847Z,999.58
2019-02-17T01:35:14.989Z,999.57
2019-02-17T01:36:15.101Z,999.60
2019-02-17T01:37:15.232Z,999.55
2019-02-17T01:38:15.348Z,999.54
2019-02-17T01:39:15.471Z,999.55
2019-02-17T01:40:15.590Z,999.56
2019-02-17T01:41:15.719Z,999.55
2019-02-17T01:42:15.838Z,999.58
2019-02-17T01:43:15.974Z,999.56
2019-02-17T01:44:16.091Z,999.56
2019-02-17T01:45:16.214Z,999.52
2019-02-17T01:46:16.343Z,999.52
2019-02-17T01:47:16.485Z,999.53
2019-02-17T01:48:16.589Z,999.51
2019-02-17T01:49:16.716Z,999.55
2019-02-17T01:50:16.838Z,999.52
2019-02-17T01:51:16.963Z,999.52
2019-02-17T01:52:17.086Z,999.55
2019-02-17T01:53:17.213Z,999.52
2019-02-17T01:54:17.339Z,999.51
2019-02-17T01:55:17.460Z,999.50
2019-02-17T01:56:17.598Z,999.52
2019-02-17T01:57:17.726Z,999.46
2019-02-17T01:58:17.843Z,999.46
2019-02-17T01:59:17.969Z,999.44
2019-02-17T02:00:18.087Z,999.45
2019-02-17T02:01:18.211Z,999.44
2019-02-17T02:02:18.346Z,999.46
2019-02-17T02:03:18.465Z,999.44
2019-02-17T02:04:18.590Z,999.41
2019-02-17T02:05:18.743Z,999.46
2019-02-17T02:06:18.834Z,999.43
2019-02-17T02:07:18.964Z,999.42
2019-02-17T02:08:19.093Z,999.47
2019-02-17T02:09:19.225Z,999.40
2019-02-17T02:10:19.340Z,999.44
2019-02-17T02:11:19.464Z,999.43
2019-02-17T02:12:19.590Z,999.41
2019-02-17T02:13:19.735Z,999.42
2019-02-17T02:14:19.857Z,999.40
2019-02-17T02:15:19.976Z,999.37
2019-02-17T02:16:20.109Z,999.36
2019-02-17T02:17:20.237Z,999.33
2019-02-17T02:18:20.367Z,999.36
2019-02-17T02:19:20.492Z,999.33
2019-02-17T02:20:20.615Z,999.30
2019-02-17T02:21:20.740Z,999.31
2019-02-17T02:22:20.871Z,999.28
2019-02-17T02:23:21.003Z,999.28
2019-02-17T02:24:21.127Z,999.27
2019-02-17T02:25:21.253Z,999.24
2019-02-17T02:26:21.385Z,999.24
2019-02-17T02:27:21.512Z,999.25
2019-02-17T02:28:21.636Z,999.25
2019-02-17T02:29:21.757Z,999.23
2019-02-17T02:30:21.886Z,999.22
2019-02-17T02:31:22.012Z,999.23
2019-02-17T02:32:22.140Z,999.23
2019-02-17T02:33:22.261Z,999.21
2019-02-17T02:34:22.387Z,999.20
2019-02-17T02:35:22.513Z,999.16
2019-02-17T02:36:22.638Z,999.17
2019-02-17T02:37:22.762Z,999.18
2019-02-17T02:38:22.886Z,999.16
2019-02-17T02:39:23.016Z,999.18
2019-02-17T02:40:23.149Z,999.16
2019-02-17T02:41:33.860Z,999.18
2019-02-17T02:42:23.389Z,999.18
2019-02-17T02:43:23.517Z,999.14
2019-02-17T02:44:23.645Z,999.12
2019-02-17T02:45:23.774Z,999.11
2019-02-17T02:46:23.891Z,999.11
2019-02-17T02:47:24.012Z,999.11
2019-02-17T02:48:24.142Z,999.08
2019-02-17T02:49:24.268Z,999.12
2019-02-17T02:50:24.388Z,999.14
2019-02-17T02:51:24.522Z,999.14
2019-02-17T02:52:24.643Z,999.15
2019-02-17T02:53:24.769Z,999.10
2019-02-17T02:54:24.891Z,999.14
2019-02-17T02:55:25.015Z,999.11
2019-02-17T02:56:25.147Z,999.14
2019-02-17T02:57:25.270Z,999.12
2019-02-17T02:58:25.396Z,999.13
2019-02-17T02:59:25.599Z,999.12
2019-02-17T03:00:25.650Z,999.10
2019-02-17T03:01:25.776Z,999.08
2019-02-17T03:02:25.908Z,999.04
2019-02-17T03:03:26.029Z,999.02
2019-02-17T03:04:26.156Z,999.03
2019-02-17T03:05:26.280Z,999.01
2019-02-17T03:06:26.412Z,999.03
2019-02-17T03:07:26.533Z,999.04
2019-02-17T03:08:26.658Z,999.00
2019-02-17T03:09:26.782Z,998.97
2019-02-17T03:10:26.905Z,999.01
2019-02-17T03:11:27.030Z,999.01
2019-02-17T03:12:27.158Z,999.02
2019-02-17T03:13:27.282Z,999.03
2019-02-17T03:14:27.408Z,998.90
2019-02-17T03:15:27.531Z,998.94
2019-02-17T03:16:27.657Z,998.90
2019-02-17T03:17:27.786Z,998.90
2019-02-17T03:18:27.910Z,998.90
2019-02-17T03:19:28.034Z,998.93
2019-02-17T03:20:28.166Z,998.92
2019-02-17T03:21:28.284Z,998.96
2019-02-17T03:22:28.411Z,998.93
2019-02-17T03:23:28.536Z,998.92
2019-02-17T03:24:28.670Z,998.97
2019-02-17T03:25:28.784Z,998.97
2019-02-17T03:26:28.920Z,998.95
2019-02-17T03:27:29.044Z,998.95
2019-02-17T03:28:29.174Z,998.96
2019-02-17T03:29:29.287Z,998.95
2019-02-17T03:30:29.413Z,998.96
2019-02-17T03:31:29.539Z,998.97
2019-02-17T03:32:29.664Z,998.95
2019-02-17T03:33:29.801Z,998.98
2019-02-17T03:34:29.921Z,998.98
2019-02-17T03:35:30.049Z,999.02
2019-02-17T03:36:30.169Z,998.97
2019-02-17T03:37:30.300Z,998.98
2019-02-17T03:38:30.424Z,998.97
2019-02-17T03:39:30.554Z,998.98
2019-02-17T03:40:30.773Z,998.94
2019-02-17T03:41:30.805Z,998.97
2019-02-17T03:42:30.933Z,998.97
2019-02-17T03:43:31.054Z,998.95
2019-02-17T03:44:31.176Z,998.95
2019-02-17T03:45:31.304Z,999.01
2019-02-17T03:46:31.434Z,998.94
2019-02-17T03:47:31.550Z,998.97
2019-02-17T03:48:31.679Z,998.95
2019-02-17T03:49:31.812Z,998.93
2019-02-17T03:50:31.939Z,998.96
2019-02-17T03:51:32.061Z,998.97
2019-02-17T03:52:32.186Z,998.93
2019-02-17T03:53:32.320Z,998.93
2019-02-17T03:54:32.445Z,998.93
2019-02-17T03:55:32.571Z,998.93
2019-02-17T03:56:32.691Z,998.90
2019-02-17T03:57:32.829Z,998.93
2019-02-17T03:58:32.950Z,998.91
2019-02-17T03:59:33.072Z,998.91
2019-02-17T04:00:33.207Z,998.89
2019-02-17T04:01:33.331Z,998.88
2019-02-17T04:02:33.526Z,998.88
2019-02-17T04:03:33.590Z,998.84
2019-02-17T04:04:33.707Z,998.87
2019-02-17T04:05:33.833Z,998.87
2019-02-17T04:06:33.960Z,998.91
2019-02-17T04:07:34.093Z,998.87
2019-02-17T04:08:34.210Z,998.92
2019-02-17T04:09:34.341Z,998.91
2019-02-17T04:10:34.479Z,998.91
2019-02-17T04:11:34.604Z,998.91
2019-02-17T04:12:34.730Z,998.89
2019-02-17T04:13:34.862Z,998.88
2019-02-17T04:14:35.001Z,998.92
2019-02-17T04:15:35.105Z,998.89
2019-02-17T04:16:35.229Z,998.90
2019-02-17T04:17:35.362Z,998.88
2019-02-17T04:18:35.500Z,998.90
2019-02-17T04:19:35.617Z,998.96
2019-02-17T04:20:35.740Z,998.93
2019-02-17T04:21:35.863Z,998.93
2019-02-17T04:22:35.992Z,998.90
2019-02-17T04:23:36.116Z,998.90
2019-02-17T04:24:36.250Z,998.90
2019-02-17T04:25:36.381Z,998.91
2019-02-17T04:26:36.509Z,998.91
2019-02-17T04:27:36.635Z,998.90
2019-02-17T04:28:36.757Z,998.88
2019-02-17T04:29:36.885Z,998.89
2019-02-17T04:30:37.010Z,998.92
2019-02-17T04:31:37.135Z,998.90
2019-02-17T04:32:37.266Z,998.90
2019-02-17T04:33:37.384Z,998.87
2019-02-17T04:34:37.520Z,998.89
2019-02-17T04:35:37.643Z,998.87
2019-02-17T04:36:37.769Z,998.86
2019-02-17T04:37:37.892Z,998.84
2019-02-17T04:38:38.007Z,998.88
2019-02-17T04:39:38.204Z,998.86
2019-02-17T04:40:38.240Z,998.82
2019-02-17T04:41:38.390Z,998.83
2019-02-17T04:42:38.519Z,998.81
2019-02-17T04:43:38.593Z,998.82
2019-02-17T04:44:38.711Z,998.81
2019-02-17T04:47:10.910Z,998.76
2019-02-17T04:48:11.029Z,998.78
2019-02-17T04:49:11.165Z,998.74
2019-02-17T04:50:11.283Z,998.73
2019-02-17T04:51:11.408Z,998.73
2019-02-17T04:52:11.538Z,998.76
2019-02-17T04:53:11.657Z,998.71
2019-02-17T04:54:11.778Z,998.68
2019-02-17T04:55:11.903Z,998.68
2019-02-17T04:56:12.029Z,998.69
2019-02-17T04:57:12.154Z,998.72
2019-02-17T04:58:12.277Z,998.69
2019-02-17T04:59:12.398Z,998.65
2019-02-17T05:00:12.530Z,998.64
2019-02-17T05:01:12.654Z,998.65
2019-02-17T05:02:12.784Z,998.67
2019-02-17T05:03:12.905Z,998.61
2019-02-17T05:04:13.029Z,998.64
2019-02-17T05:05:13.156Z,998.63
2019-02-17T05:06:13.296Z,998.61
2019-02-17T05:07:13.416Z,998.60
2019-02-17T05:08:13.529Z,998.62
2019-02-17T05:09:13.648Z,998.60
2019-02-17T05:10:13.773Z,998.64
2019-02-17T05:11:13.896Z,998.63
2019-02-17T05:12:14.021Z,998.62
2019-02-17T05:13:14.143Z,998.63
2019-02-17T05:14:14.261Z,998.61
2019-02-17T05:15:14.473Z,998.62
2019-02-17T05:16:14.518Z,998.58
2019-02-17T05:17:14.641Z,998.55
2019-02-17T05:18:14.757Z,998.55
2019-02-17T05:19:14.879Z,998.57
2019-02-17T05:20:15.012Z,998.57
2019-02-17T05:21:15.149Z,998.55
2019-02-17T05:22:15.260Z,998.56
2019-02-17T05:23:15.381Z,998.53
2019-02-17T05:24:15.510Z,998.52
2019-02-17T05:25:15.640Z,998.55
2019-02-17T05:26:15.768Z,998.46
2019-02-17T05:27:15.883Z,998.48
2019-02-17T05:28:16.007Z,998.50
2019-02-17T05:29:16.134Z,998.49
2019-02-17T05:30:16.267Z,998.49
2019-02-17T05:31:16.385Z,998.45
2019-02-17T05:32:16.512Z,998.50
2019-02-17T05:33:16.636Z,998.52
2019-02-17T05:34:16.765Z,998.53
2019-02-17T05:35:16.885Z,998.48
2019-02-17T05:36:17.014Z,998.48
2019-02-17T05:37:17.130Z,998.48
2019-02-17T05:38:17.303Z,998.51
2019-02-17T05:39:17.381Z,998.54
2019-02-17T05:40:17.516Z,998.51
2019-02-17T05:41:17.631Z,998.51
2019-02-17T05:42:17.754Z,998.52
2019-02-17T05:43:17.877Z,998.48
2019-02-17T05:44:18.002Z,998.52
2019-02-17T05:45:18.126Z,998.49
2019-02-17T05:46:18.254Z,998.52
2019-02-17T05:47:18.379Z,998.51
2019-02-17T05:48:18.503Z,998.48
2019-02-17T05:49:18.629Z,998.49
2019-02-17T05:50:18.753Z,998.50
2019-02-17T05:51:18.876Z,998.54
2019-02-17T05:52:19.003Z,998.52
2019-02-17T05:53:19.130Z,998.50
2019-02-17T05:54:19.251Z,998.49
2019-02-17T05:55:19.429Z,998.51
2019-02-17T05:56:19.494Z,998.50
2019-02-17T05:57:19.618Z,998.49
2019-02-17T05:58:19.755Z,998.52
2019-02-17T05:59:19.875Z,998.50
2019-02-17T06:00:20.013Z,998.53
2019-02-17T06:01:20.133Z,998.53
2019-02-17T06:02:20.241Z,998.51
2019-02-17T06:03:20.374Z,998.52
2019-02-17T06:04:20.501Z,998.52
2019-02-17T06:05:20.618Z,998.50
2019-02-17T06:06:20.745Z,998.53
2019-02-17T06:07:20.868Z,998.53
2019-02-17T06:08:20.996Z,998.55
2019-02-17T06:09:21.118Z,998.53
2019-02-17T06:10:21.246Z,998.52
2019-02-17T06:11:21.362Z,998.53
2019-02-17T06:12:21.489Z,998.52
2019-02-17T06:13:21.611Z,998.55
2019-02-17T06:14:21.742Z,998.55
2019-02-17T06:15:21.868Z,998.54
2019-02-17T06:16:22.000Z,998.55
2019-02-17T06:17:22.125Z,998.60
2019-02-17T06:18:22.233Z,998.56
2019-02-17T06:19:22.356Z,998.55
2019-02-17T06:20:22.493Z,998.52
2019-02-17T06:21:22.606Z,998.57
2019-02-17T06:22:22.729Z,998.56
2019-02-17T06:23:22.855Z,998.54
2019-02-17T06:24:22.984Z,998.59
2019-02-17T06:25:23.110Z,998.55
2019-02-17T06:26:23.227Z,998.61
2019-02-17T06:27:23.357Z,998.58
2019-02-17T06:28:23.483Z,998.60
2019-02-17T06:29:23.620Z,998.56
2019-02-17T06:30:23.743Z,998.58
2019-02-17T06:31:23.866Z,998.61
2019-02-17T06:32:23.988Z,998.62
2019-02-17T06:33:24.110Z,998.63
2019-02-17T06:34:24.236Z,998.67
2019-02-17T06:35:24.359Z,998.66
2019-02-17T06:36:24.501Z,998.67
2019-02-17T06:37:24.623Z,998.68
2019-02-17T06:38:24.745Z,998.66
2019-02-17T06:39:24.872Z,998.65
2019-02-17T06:40:24.992Z,998.72
2019-02-17T06:41:25.124Z,998.74
2019-02-17T06:42:25.238Z,998.73
2019-02-17T06:43:25.360Z,998.75
2019-02-17T06:44:25.484Z,998.69
2019-02-17T06:45:25.616Z,998.72
2019-02-17T06:46:25.731Z,998.75
2019-02-17T06:47:25.859Z,998.72
2019-02-17T06:48:25.991Z,998.74
2019-02-17T06:49:26.119Z,998.72
2019-02-17T06:50:26.241Z,998.77
2019-02-17T06:51:26.373Z,998.78
2019-02-17T06:52:26.496Z,998.76
2019-02-17T06:53:26.627Z,998.81
2019-02-17T06:54:26.749Z,998.79
2019-02-17T06:55:26.887Z,998.78
2019-02-17T06:56:27.002Z,998.83
2019-02-17T06:57:27.126Z,998.83
2019-02-17T06:58:27.251Z,998.77
2019-02-17T06:59:27.379Z,998.76
2019-02-17T07:00:27.514Z,998.80
2019-02-17T07:01:27.631Z,998.83
2019-02-17T07:02:27.760Z,998.85
2019-02-17T07:03:27.890Z,998.83
2019-02-17T07:04:28.042Z,998.85
2019-02-17T07:05:28.137Z,998.85
2019-02-17T07:06:28.264Z,998.83
2019-02-17T07:07:29.067Z,998.84
2019-02-17T07:08:28.513Z,998.83
2019-02-17T07:09:28.636Z,998.80
2019-02-17T07:10:28.764Z,998.82
2019-02-17T07:11:28.916Z,998.80
2019-02-17T07:12:29.017Z,998.80
2019-02-17T07:13:29.141Z,998.79
2019-02-17T07:14:29.265Z,998.80
2019-02-17T07:15:29.384Z,998.77
2019-02-17T07:16:29.514Z,998.79
2019-02-17T07:17:29.634Z,998.79
2019-02-17T07:18:29.764Z,998.76
2019-02-17T07:19:29.886Z,998.77
2019-02-17T07:20:30.007Z,998.76
2019-02-17T07:21:30.152Z,998.82
2019-02-17T07:22:30.262Z,998.88
2019-02-17T07:23:30.389Z,998.86
2019-02-17T07:24:30.514Z,998.87
2019-02-17T07:25:30.734Z,998.86
2019-02-17T07:26:30.769Z,998.89
2019-02-17T07:27:30.894Z,998.87
2019-02-17T07:28:31.025Z,998.91
2019-02-17T07:29:31.143Z,998.90
2019-02-17T07:30:31.263Z,998.94
2019-02-17T07:31:34.814Z,998.93
2019-02-17T07:32:31.518Z,998.96
2019-02-17T07:33:31.653Z,998.94
2019-02-17T07:34:31.780Z,998.95
2019-02-17T07:35:31.902Z,998.93
2019-02-17T07:36:32.025Z,998.92
2019-02-17T07:37:33.880Z,998.94
2019-02-17T07:38:32.276Z,998.95
2019-02-17T07:39:32.413Z,998.97
2019-02-17T07:40:32.529Z,998.97
2019-02-17T07:41:32.660Z,998.92
2019-02-17T07:42:32.792Z,998.92
2019-02-17T07:43:32.911Z,998.93
2019-02-17T07:44:33.035Z,998.90
2019-02-17T07:45:33.166Z,998.89
2019-02-17T07:46:33.293Z,998.91
2019-02-17T07:47:33.422Z,998.89
2019-02-17T07:48:33.543Z,998.86
2019-02-17T07:49:33.670Z,998.87
2019-02-17T07:50:33.803Z,998.86
2019-02-17T07:51:33.927Z,998.83
2019-02-17T07:52:34.381Z,998.83
2019-02-17T07:53:34.169Z,998.81
2019-02-17T07:54:34.292Z,998.84
2019-02-17T07:55:34.416Z,998.83
2019-02-17T07:56:34.543Z,998.83
2019-02-17T07:57:34.670Z,998.79
2019-02-17T07:58:34.799Z,998.78
2019-02-17T07:59:34.920Z,998.84
2019-02-17T08:00:35.042Z,998.83
2019-02-17T08:01:44.721Z,998.87
2019-02-17T08:02:35.295Z,998.84
2019-02-17T08:03:35.421Z,998.84
2019-02-17T08:04:35.551Z,998.82
2019-02-17T08:05:35.680Z,998.84
2019-02-17T08:06:35.817Z,998.85
2019-02-17T08:07:35.936Z,998.84
2019-02-17T08:08:36.062Z,998.87
2019-02-17T08:09:36.204Z,998.87
2019-02-17T08:10:36.325Z,998.88
2019-02-17T08:11:36.449Z,998.88
2019-02-17T08:12:36.584Z,998.87
2019-02-17T08:13:36.712Z,998.89
2019-02-17T08:14:36.824Z,998.89
2019-02-17T08:15:36.954Z,998.91
2019-02-17T08:16:37.072Z,998.89
2019-02-17T08:17:37.206Z,998.88
2019-02-17T08:18:37.355Z,998.86
2019-02-17T08:19:37.484Z,998.90
2019-02-17T08:20:37.616Z,998.82
2019-02-17T08:21:37.735Z,998.82
2019-02-17T08:22:37.860Z,998.85
2019-02-17T08:23:37.987Z,998.86
2019-02-17T08:24:38.121Z,998.83
2019-02-17T08:25:38.234Z,998.84
2019-02-17T08:26:38.368Z,998.84
2019-02-17T08:27:38.487Z,998.81
2019-02-17T08:28:38.612Z,998.79
2019-02-17T08:29:38.729Z,998.77
2019-02-17T08:30:38.861Z,998.75
2019-02-17T08:31:38.984Z,998.77
2019-02-17T08:32:39.111Z,998.77
2019-02-17T08:33:39.249Z,998.79
2019-02-17T08:34:39.363Z,998.78
2019-02-17T08:35:39.485Z,998.77
2019-02-17T08:36:39.637Z,998.75
2019-02-17T08:37:39.790Z,998.70
2019-02-17T08:38:39.902Z,998.73
2019-02-17T08:39:40.018Z,998.70
2019-02-17T08:40:40.153Z,998.71
2019-02-17T08:41:40.281Z,998.70
2019-02-17T08:42:40.407Z,998.76
2019-02-17T08:43:40.529Z,998.76
2019-02-17T08:44:40.652Z,998.70
2019-02-17T08:45:40.788Z,998.75
2019-02-17T08:46:40.916Z,998.74
2019-02-17T08:47:41.042Z,998.69
2019-02-17T08:48:41.167Z,998.71
2019-02-17T08:49:41.301Z,998.68
2019-02-17T08:50:41.428Z,998.65
2019-02-17T08:51:41.547Z,998.66
2019-02-17T08:52:41.671Z,998.67
2019-02-17T08:53:41.793Z,998.66
2019-02-17T08:54:41.926Z,998.68
2019-02-17T08:55:42.052Z,998.70
2019-02-17T08:56:42.186Z,998.65
2019-02-17T08:57:42.312Z,998.67
2019-02-17T08:58:42.436Z,998.63
2019-02-17T08:59:42.552Z,998.61
2019-02-17T09:00:42.700Z,998.60
2019-02-17T09:01:42.809Z,998.60
2019-02-17T09:02:42.940Z,998.63
2019-02-17T09:03:43.112Z,998.59
2019-02-17T09:04:43.194Z,998.59
2019-02-17T09:05:44.367Z,998.60
2019-02-17T09:06:43.442Z,998.61
2019-02-17T09:07:43.564Z,998.58
2019-02-17T09:08:43.694Z,998.63
2019-02-17T09:09:43.819Z,998.62
2019-02-17T09:10:43.937Z,998.61
2019-02-17T09:11:44.064Z,998.60
2019-02-17T09:12:44.201Z,998.61
2019-02-17T09:13:44.330Z,998.61
2019-02-17T09:14:44.451Z,998.58
2019-02-17T09:15:44.580Z,998.61
2019-02-17T09:16:44.694Z,998.55
2019-02-17T09:17:44.823Z,998.59
2019-02-17T09:18:44.982Z,998.58
2019-02-17T09:19:45.080Z,998.58
2019-02-17T09:20:45.226Z,998.55
2019-02-17T09:21:45.355Z,998.56
2019-02-17T09:22:45.476Z,998.57
2019-02-17T09:23:45.612Z,998.54
2019-02-17T09:24:45.740Z,998.51
2019-02-17T09:25:45.868Z,998.53
2019-02-17T09:26:45.998Z,998.48
2019-02-17T09:27:46.127Z,998.48
2019-02-17T09:28:46.257Z,998.47
2019-02-17T09:29:46.392Z,998.53
2019-02-17T09:30:46.518Z,998.53
2019-02-17T09:31:46.650Z,998.49
2019-02-17T09:32:46.779Z,998.50
2019-02-17T09:33:46.905Z,998.53
2019-02-17T09:34:47.034Z,998.49
2019-02-17T09:35:47.163Z,998.51
2019-02-17T09:36:47.292Z,998.49
2019-02-17T09:37:47.409Z,998.51
2019-02-17T09:38:47.534Z,998.51
2019-02-17T09:39:47.666Z,998.54
2019-02-17T09:40:48.099Z,998.53
2019-02-17T09:41:47.908Z,998.52
2019-02-17T09:42:48.041Z,998.46
2019-02-17T09:43:48.168Z,998.50
2019-02-17T09:44:48.299Z,998.50
2019-02-17T09:45:48.434Z,998.49
2019-02-17T09:46:48.549Z,998.47
2019-02-17T09:47:48.680Z,998.49
2019-02-17T09:48:48.814Z,998.46
2019-02-17T09:49:48.957Z,998.46
2019-02-17T09:50:49.122Z,998.44
2019-02-17T09:51:49.258Z,998.47
2019-02-17T09:52:49.377Z,998.44
2019-02-17T09:53:49.494Z,998.47
2019-02-17T09:54:49.623Z,998.47
2019-02-17T09:55:49.766Z,998.47
2019-02-17T09:56:49.881Z,998.43
2019-02-17T09:57:49.992Z,998.46
2019-02-17T09:58:50.152Z,998.47
2019-02-17T09:59:50.266Z,998.48
2019-02-17T10:00:50.426Z,998.53
2019-02-17T10:01:50.554Z,998.50
2019-02-17T10:02:50.692Z,998.47
2019-02-17T10:03:50.821Z,998.45
2019-02-17T10:04:50.945Z,998.47
2019-02-17T10:05:51.069Z,998.45
2019-02-17T10:06:51.200Z,998.37
2019-02-17T10:07:51.401Z,998.40
2019-02-17T10:08:51.468Z,998.40
2019-02-17T10:09:51.608Z,998.43
2019-02-17T10:10:51.727Z,998.41
2019-02-17T10:11:51.852Z,998.36
2019-02-17T10:12:51.983Z,998.39
2019-02-17T10:13:52.112Z,998.35
2019-02-17T10:14:52.246Z,998.37
2019-02-17T10:15:52.371Z,998.35
2019-02-17T10:16:52.494Z,998.38
2019-02-17T10:17:52.644Z,998.35
2019-02-17T10:18:52.769Z,998.36
2019-02-17T10:19:52.916Z,998.29
2019-02-17T10:20:53.039Z,998.30
2019-02-17T10:21:53.173Z,998.30
2019-02-17T10:22:53.304Z,998.27
2019-02-17T10:23:53.437Z,998.30
2019-02-17T10:24:53.557Z,998.29
2019-02-17T10:25:53.696Z,998.32
2019-02-17T10:26:53.829Z,998.30
2019-02-17T10:27:53.960Z,998.34
2019-02-17T10:28:54.079Z,998.29
2019-02-17T10:29:54.213Z,998.23
2019-02-17T10:30:54.344Z,998.26
2019-02-17T10:31:54.471Z,998.27
2019-02-17T10:32:54.617Z,998.25
2019-02-17T10:33:54.741Z,998.26
2019-02-17T10:34:54.870Z,998.27
2019-02-17T10:35:55.003Z,998.25
2019-02-17T10:36:55.131Z,998.24
2019-02-17T10:37:55.264Z,998.23
2019-02-17T10:38:55.384Z,998.21
2019-02-17T10:39:55.522Z,998.24
2019-02-17T10:40:55.658Z,998.27
2019-02-17T10:41:55.800Z,998.20
2019-02-17T10:42:55.934Z,998.23
2019-02-17T10:43:56.069Z,998.19
2019-02-17T10:44:56.177Z,998.22
2019-02-17T10:45:56.312Z,998.21
2019-02-17T10:46:56.447Z,998.21
2019-02-17T10:47:56.590Z,998.21
2019-02-17T10:48:56.737Z,998.24
2019-02-17T10:49:56.865Z,998.25
2019-02-17T10:50:57.003Z,998.27
2019-02-17T10:51:57.135Z,998.26
2019-02-17T10:52:57.260Z,998.24
2019-02-17T10:53:57.399Z,998.24
2019-02-17T10:54:57.539Z,998.26
2019-02-17T10:55:57.671Z,998.22
2019-02-17T10:56:57.791Z,998.22
2019-02-17T10:57:57.941Z,998.19
2019-02-17T10:58:58.075Z,998.18
2019-02-17T10:59:58.224Z,998.21
2019-02-17T11:00:58.383Z,998.13
2019-02-17T11:01:58.484Z,998.17
2019-02-17T11:02:58.610Z,998.18
2019-02-17T11:03:58.745Z,998.17
2019-02-17T11:04:58.885Z,998.20
2019-02-17T11:05:59.028Z,998.16
2019-02-17T11:06:59.964Z,998.17
2019-02-17T11:07:59.312Z,998.19
2019-02-17T11:08:59.453Z,998.17
2019-02-17T11:09:59.585Z,998.16
2019-02-17T11:10:59.713Z,998.14
2019-02-17T11:11:59.867Z,998.18
2019-02-17T11:12:59.991Z,998.20
2019-02-17T11:14:00.136Z,998.20
2019-02-17T11:15:00.367Z,998.29
2019-02-17T11:16:00.423Z,998.29
2019-02-17T11:17:00.586Z,998.25
2019-02-17T11:18:00.716Z,998.25
2019-02-17T11:19:00.845Z,998.23
2019-02-17T11:20:01.019Z,998.23
2019-02-17T11:21:01.142Z,998.21
2019-02-17T11:22:01.274Z,998.19
2019-02-17T11:23:01.416Z,998.13
2019-02-17T11:24:01.569Z,998.15
2019-02-17T11:25:01.710Z,998.05
2019-02-17T11:26:01.837Z,998.07
2019-02-17T11:27:01.979Z,998.07
2019-02-17T11:28:02.138Z,998.11
2019-02-17T11:29:02.296Z,998.15
2019-02-17T11:30:02.403Z,998.17
2019-02-17T11:31:02.543Z,998.11
2019-02-17T11:32:02.687Z,998.09
2019-02-17T11:33:02.829Z,998.09
2019-02-17T11:34:02.964Z,998.06
2019-02-17T11:35:03.107Z,997.99
2019-02-17T11:36:03.237Z,997.99
2019-02-17T11:37:03.374Z,997.95
2019-02-17T11:38:03.511Z,997.98
2019-02-17T11:39:03.651Z,997.93
2019-02-17T11:40:03.813Z,997.91
2019-02-17T11:41:03.940Z,997.93
2019-02-17T11:42:04.105Z,997.91
2019-02-17T11:43:04.248Z,997.86
2019-02-17T11:44:04.412Z,997.84
2019-02-17T11:45:04.562Z,997.81
2019-02-17T11:46:04.696Z,997.79
2019-02-17T11:47:07.245Z,997.80
2019-02-17T11:48:04.983Z,997.79
2019-02-17T11:49:05.122Z,997.76
2019-02-17T11:50:05.269Z,997.73
2019-02-17T11:51:05.420Z,997.70
2019-02-17T11:52:05.562Z,997.69
2019-02-17T11:53:05.713Z,997.68
2019-02-17T11:54:05.843Z,997.67
2019-02-17T11:55:05.991Z,997.63
2019-02-17T11:56:06.117Z,997.71
2019-02-17T11:57:06.265Z,997.67
2019-02-17T11:58:06.395Z,997.63
2019-02-17T11:59:06.551Z,997.63
2019-02-17T12:00:06.692Z,997.62
2019-02-17T12:01:06.830Z,997.68
2019-02-17T12:02:06.970Z,997.68
2019-02-17T12:03:08.312Z,997.69
2019-02-17T12:04:07.260Z,997.65
2019-02-17T12:05:07.457Z,997.68
2019-02-17T12:06:07.555Z,997.65
2019-02-17T12:07:07.692Z,997.68
2019-02-17T12:08:07.843Z,997.64
2019-02-17T12:09:08.006Z,997.64
2019-02-17T12:10:08.131Z,997.67
2019-02-17T12:11:08.273Z,997.64
2019-02-17T12:12:08.402Z,997.59
2019-02-17T12:13:08.553Z,997.58
2019-02-17T12:14:08.702Z,997.63
2019-02-17T12:15:08.842Z,997.61
2019-02-17T12:16:08.997Z,997.52
2019-02-17T12:17:09.132Z,997.51
2019-02-17T12:18:09.272Z,997.46
2019-02-17T12:19:09.442Z,997.48
2019-02-17T12:20:09.579Z,997.51
2019-02-17T12:21:09.709Z,997.42
2019-02-17T12:22:09.862Z,997.44
2019-02-17T12:23:09.995Z,997.41
2019-02-17T12:24:10.165Z,997.38
2019-02-17T12:25:10.302Z,997.38
2019-02-17T12:26:10.451Z,997.34
2019-02-17T12:27:10.610Z,997.32
2019-02-17T12:28:10.738Z,997.30
2019-02-17T12:29:10.882Z,997.26
2019-02-17T12:30:11.039Z,997.21
2019-02-17T12:31:11.184Z,997.18